createdAt,value
2022-08-10T00:01:51.059Z,99873.50
2022-08-10T00:04:21.402Z,99868.22
2022-08-10T00:06:52.620Z,99870.72
2022-08-10T00:09:20.851Z,99876.81
2022-08-10T00:11:48.674Z,99875.84
2022-08-10T00:14:16.589Z,99869.25
2022-08-10T00:16:44.499Z,99873.84
2022-08-10T00:19:12.427Z,99872.94
2022-08-10T00:21:40.299Z,99873.53
2022-08-10T00:24:09.667Z,99869.53
2022-08-10T00:28:02.033Z,99869.72
2022-08-10T00:29:25.415Z,99861.44
2022-08-10T00:31:58.862Z,99858.78
2022-08-10T00:34:27.304Z,99858.13
2022-08-10T00:36:55.274Z,99859.22
2022-08-10T00:39:25.190Z,99863.56
2022-08-10T00:42:06.659Z,99866.38
2022-08-10T00:44:37.009Z,99862.59
2022-08-10T00:47:05.203Z,99862.44
2022-08-10T00:49:33.252Z,99861.13
2022-08-10T00:52:01.881Z,99858.09
2022-08-10T00:54:31.531Z,99859.91
2022-08-10T00:57:17.575Z,99858.22
2022-08-10T00:59:58.727Z,99857.91
2022-08-10T01:02:29.438Z,99860.44
2022-08-10T01:05:00.810Z,99857.25
2022-08-10T01:07:49.181Z,99863.31
2022-08-10T01:10:30.644Z,99865.31
2022-08-10T01:13:10.777Z,99851.66
2022-08-10T01:15:46.357Z,99858.69
2022-08-10T01:18:19.349Z,99851.56
2022-08-10T01:21:00.384Z,99857.78
2022-08-10T01:23:54.708Z,99860.94
2022-08-10T01:27:01.665Z,99864.94
2022-08-10T01:29:54.649Z,99857.19
2022-08-10T01:32:32.427Z,99852.81
2022-08-10T01:35:11.927Z,99857.63
2022-08-10T01:37:52.275Z,99856.53
2022-08-10T01:40:25.130Z,99853.50
2022-08-10T01:42:55.435Z,99854.16
2022-08-10T01:45:45.234Z,99849.97
2022-08-10T01:48:28.889Z,99855.91
2022-08-10T01:51:01.760Z,99852.44
2022-08-10T01:53:41.196Z,99855.69
2022-08-10T01:56:11.839Z,99857.13
2022-08-10T01:58:40.453Z,99854.72
2022-08-10T02:01:16.663Z,99849.41
2022-08-10T02:04:04.427Z,99852.06
2022-08-10T02:06:36.706Z,99855.94
2022-08-10T02:09:07.413Z,99859.97
2022-08-10T02:12:05.844Z,99860.69
2022-08-10T02:14:33.279Z,99857.59
2022-08-10T02:17:07.333Z,99870.25
2022-08-10T02:19:37.837Z,99863.16
2022-08-10T02:22:36.659Z,99862.63
2022-08-10T02:24:57.750Z,99860.53
2022-08-10T02:27:27.908Z,99868.34
2022-08-10T02:32:49.618Z,99863.03
2022-08-10T02:35:22.865Z,99869.25
2022-08-10T02:38:00.620Z,99874.34
2022-08-10T02:42:17.925Z,99877.34
2022-08-10T02:45:20.853Z,99877.22
2022-08-10T02:46:18.206Z,99874.28
2022-08-10T02:48:55.331Z,99869.16
2022-08-10T02:52:07.709Z,99874.06
2022-08-10T02:54:23.854Z,99872.59
2022-08-10T02:56:55.793Z,99867.00
2022-08-10T02:59:28.912Z,99877.97
2022-08-10T03:02:12.196Z,99884.78
2022-08-10T03:04:55.995Z,99881.28
2022-08-10T03:10:29.344Z,99882.66
2022-08-10T03:13:00.662Z,99875.13
2022-08-10T03:15:30.748Z,99875.03
2022-08-10T03:17:59.739Z,99871.94
2022-08-10T03:20:36.806Z,99880.38
2022-08-10T03:23:10.816Z,99881.63
2022-08-10T03:25:39.326Z,99881.44
2022-08-10T03:28:08.075Z,99886.44
2022-08-10T03:30:36.524Z,99881.38
2022-08-10T03:33:06.038Z,99885.50
2022-08-10T03:35:35.575Z,99894.97
2022-08-10T03:38:04.119Z,99885.03
2022-08-10T03:40:45.766Z,99890.03
2022-08-10T03:43:18.587Z,99887.78
2022-08-10T03:45:56.053Z,99885.41
2022-08-10T03:48:32.248Z,99884.34
2022-08-10T03:51:16.913Z,99883.28
2022-08-10T03:54:05.965Z,99883.22
2022-08-10T03:56:34.832Z,99883.53
2022-08-10T03:59:03.202Z,99882.06
2022-08-10T04:02:43.556Z,99890.03
2022-08-10T04:04:24.084Z,99887.91
2022-08-10T04:06:55.783Z,99892.59
2022-08-10T04:09:43.186Z,99892.34
2022-08-10T04:12:14.606Z,99895.53
2022-08-10T04:14:51.198Z,99896.25
2022-08-10T04:18:02.582Z,99897.31
2022-08-10T04:20:20.047Z,99893.47
2022-08-10T04:22:53.405Z,99896.63
2022-08-10T04:25:23.364Z,99903.63
2022-08-10T04:27:52.118Z,99904.13
2022-08-10T04:30:20.287Z,99901.50
2022-08-10T04:32:52.500Z,99901.41
2022-08-10T04:35:22.344Z,99906.78
2022-08-10T04:37:53.363Z,99905.09
2022-08-10T04:40:29.741Z,99899.38
2022-08-10T04:43:04.482Z,99899.63
2022-08-10T04:45:49.613Z,99901.59
2022-08-10T04:48:42.424Z,99901.22
2022-08-10T04:51:17.749Z,99912.28
2022-08-10T04:54:04.981Z,99910.13
2022-08-10T04:56:37.703Z,99911.28
2022-08-10T04:59:06.754Z,99917.78
2022-08-10T05:02:21.778Z,99909.59
2022-08-10T05:04:34.790Z,99918.16
2022-08-10T05:07:06.071Z,99912.75
2022-08-10T05:10:04.247Z,99911.66
2022-08-10T05:12:23.144Z,99912.47
2022-08-10T05:14:52.051Z,99903.78
2022-08-10T05:17:20.111Z,99906.41
2022-08-10T05:20:02.975Z,99913.16
2022-08-10T05:22:36.733Z,99909.28
2022-08-10T05:25:09.319Z,99917.66
2022-08-10T05:27:37.578Z,99915.13
2022-08-10T05:30:07.822Z,99912.56
2022-08-10T05:32:58.921Z,99923.56
2022-08-10T05:35:24.937Z,99921.69
2022-08-10T05:38:13.000Z,99922.13
2022-08-10T05:40:46.710Z,99928.50
2022-08-10T05:43:17.958Z,99925.06
2022-08-10T05:46:18.129Z,99920.56
2022-08-10T05:48:54.561Z,99930.13
2022-08-10T05:51:23.639Z,99922.59
2022-08-10T05:54:02.378Z,99928.16
2022-08-10T05:56:53.632Z,99931.53
2022-08-10T06:00:32.955Z,99927.91
2022-08-10T06:02:30.767Z,99930.38
2022-08-10T06:05:06.664Z,99932.78
2022-08-10T06:07:38.483Z,99931.91
2022-08-10T06:10:10.434Z,99925.22
2022-08-10T06:12:55.219Z,99922.94
2022-08-10T06:15:50.756Z,99930.00
2022-08-10T06:18:14.510Z,99931.66
2022-08-10T06:20:42.935Z,99930.59
2022-08-10T06:23:12.262Z,99931.25
2022-08-10T06:26:08.320Z,99923.97
2022-08-10T06:28:33.820Z,99921.81
2022-08-10T06:31:02.751Z,99919.22
2022-08-10T06:33:33.127Z,99920.88
2022-08-10T06:36:02.795Z,99920.97
2022-08-10T06:38:34.723Z,99926.81
2022-08-10T06:41:09.205Z,99936.13
2022-08-10T06:43:42.587Z,99928.53
2022-08-10T06:46:14.349Z,99932.50
2022-08-10T06:48:48.646Z,99927.25
2022-08-10T06:51:21.443Z,99933.66
2022-08-10T06:53:55.153Z,99932.66
2022-08-10T06:56:36.042Z,99932.41
2022-08-10T06:59:21.086Z,99934.03
2022-08-10T07:01:53.964Z,99931.69
2022-08-10T07:04:32.291Z,99914.63
2022-08-10T07:07:04.055Z,99918.97
2022-08-10T07:09:33.811Z,99924.25
2022-08-10T07:12:07.504Z,99924.66
2022-08-10T07:14:42.778Z,99923.25
2022-08-10T07:17:15.861Z,99915.56
2022-08-10T07:19:50.108Z,99924.69
2022-08-10T07:23:27.174Z,99925.41
2022-08-10T07:25:11.848Z,99917.56
2022-08-10T07:27:59.932Z,99923.59
2022-08-10T07:30:32.134Z,99917.78
2022-08-10T07:33:02.311Z,99924.69
2022-08-10T07:35:41.700Z,99916.16
2022-08-10T07:38:14.062Z,99915.84
2022-08-10T07:40:44.778Z,99915.81
2022-08-10T07:43:15.299Z,99917.16
2022-08-10T07:45:47.635Z,99914.91
2022-08-10T07:48:18.029Z,99922.78
2022-08-10T07:50:48.056Z,99921.25
2022-08-10T07:53:21.363Z,99918.94
2022-08-10T07:56:05.738Z,99912.94
2022-08-10T07:58:51.453Z,99913.16
2022-08-10T08:01:25.332Z,99916.53
2022-08-10T08:04:05.359Z,99913.09
2022-08-10T08:06:41.606Z,99908.38
2022-08-10T08:09:10.074Z,99920.56
2022-08-10T08:11:39.890Z,99905.03
2022-08-10T08:14:09.789Z,99908.00
2022-08-10T08:16:44.602Z,99900.72
2022-08-10T08:19:37.943Z,99908.41
2022-08-10T08:24:10.246Z,99902.22
2022-08-10T08:24:53.579Z,99908.63
2022-08-10T08:27:22.096Z,99910.38
2022-08-10T08:29:51.725Z,99917.28
2022-08-10T08:32:23.553Z,99922.25
2022-08-10T08:34:55.502Z,99913.94
2022-08-10T08:38:31.603Z,99914.97
2022-08-10T08:40:19.782Z,99913.47
2022-08-10T08:43:14.430Z,99917.16
2022-08-10T08:46:01.612Z,99897.97
2022-08-10T08:48:57.799Z,99906.59
2022-08-10T08:52:07.929Z,99898.94
2022-08-10T08:54:38.270Z,99900.94
2022-08-10T08:57:12.392Z,99904.56
2022-08-10T09:00:09.949Z,99897.81
2022-08-10T09:03:17.870Z,99896.56
2022-08-10T09:05:59.430Z,99893.69
2022-08-10T09:09:04.163Z,99883.66
2022-08-10T09:11:51.719Z,99893.53
2022-08-10T09:14:26.174Z,99892.19
2022-08-10T09:17:00.685Z,99889.09
2022-08-10T09:19:36.496Z,99882.13
2022-08-10T09:22:18.735Z,99889.56
2022-08-10T09:24:55.203Z,99880.28
2022-08-10T09:27:27.539Z,99882.97
2022-08-10T09:29:58.492Z,99876.38
2022-08-10T09:36:14.871Z,99888.53
2022-08-10T09:36:27.001Z,99879.53
2022-08-10T09:38:34.875Z,99886.09
2022-08-10T09:41:14.566Z,99876.34
2022-08-10T09:43:51.598Z,99875.53
2022-08-10T09:46:34.919Z,99881.09
2022-08-10T09:49:10.698Z,99881.09
2022-08-10T09:51:55.009Z,99869.19
2022-08-10T09:54:37.520Z,99866.97
2022-08-10T09:57:44.467Z,99867.63
2022-08-10T10:00:12.593Z,99856.47
2022-08-10T10:02:49.063Z,99864.44
2022-08-10T10:05:28.530Z,99858.59
2022-08-10T10:08:07.092Z,99863.25
2022-08-10T10:10:47.392Z,99857.84
2022-08-10T10:13:52.806Z,99858.13
2022-08-10T10:16:27.295Z,99864.91
2022-08-10T10:19:08.990Z,99858.56
2022-08-10T10:21:53.911Z,99855.59
2022-08-10T10:24:31.190Z,99848.00
2022-08-10T10:27:04.308Z,99835.22
2022-08-10T10:29:56.700Z,99843.38
2022-08-10T10:32:37.577Z,99834.69
2022-08-10T10:35:16.813Z,99831.38
2022-08-10T10:38:10.305Z,99826.06
2022-08-10T10:40:44.912Z,99822.53
2022-08-10T10:43:26.856Z,99820.91
2022-08-10T10:46:04.625Z,99815.75
2022-08-10T10:48:41.408Z,99832.00
2022-08-10T10:51:16.203Z,99822.63
2022-08-10T10:53:48.735Z,99812.06
2022-08-10T10:56:21.734Z,99807.22
2022-08-10T10:59:16.173Z,99810.47
2022-08-10T11:02:00.060Z,99821.28
2022-08-10T11:04:36.458Z,99805.53
2022-08-10T11:07:15.780Z,99797.81
2022-08-10T11:10:09.005Z,99804.22
2022-08-10T11:12:45.707Z,99806.47
2022-08-10T11:15:24.335Z,99806.41
2022-08-10T11:17:57.985Z,99802.22
2022-08-10T11:20:33.226Z,99796.22
2022-08-10T11:23:10.614Z,99801.41
2022-08-10T11:25:43.811Z,99788.53
2022-08-10T11:28:17.617Z,99791.03
2022-08-10T11:30:51.390Z,99789.16
2022-08-10T11:33:30.959Z,99782.81
2022-08-10T11:36:05.046Z,99785.63
2022-08-10T11:39:18.592Z,99786.38
2022-08-10T11:42:09.072Z,99774.19
2022-08-10T11:44:48.332Z,99787.72
2022-08-10T11:47:21.964Z,99770.72
2022-08-10T11:49:54.599Z,99773.78
2022-08-10T11:52:33.298Z,99774.00
2022-08-10T11:55:10.874Z,99769.38
2022-08-10T11:57:54.130Z,99765.22
2022-08-10T12:00:23.626Z,99770.13
2022-08-10T12:02:56.489Z,99763.63
2022-08-10T12:05:51.750Z,99772.91
2022-08-10T12:10:07.221Z,99762.66
2022-08-10T12:11:08.548Z,99749.94
2022-08-10T12:13:58.466Z,99756.28
2022-08-10T12:16:33.918Z,99753.28
2022-08-10T12:19:07.118Z,99748.22
2022-08-10T12:21:40.169Z,99757.97
2022-08-10T12:24:17.119Z,99750.84
2022-08-10T12:26:54.805Z,99752.00
2022-08-10T12:29:43.543Z,99746.97
2022-08-10T12:32:15.645Z,99735.25
2022-08-10T12:34:51.109Z,99733.94
2022-08-10T12:37:23.898Z,99744.81
2022-08-10T12:40:31.442Z,99732.94
2022-08-10T12:43:02.562Z,99738.38
2022-08-10T12:45:54.056Z,99734.19
2022-08-10T12:48:31.585Z,99731.66
2022-08-10T12:51:05.882Z,99731.63
2022-08-10T12:53:45.259Z,99729.28
2022-08-10T12:56:21.860Z,99725.28
2022-08-10T12:58:57.029Z,99729.19
2022-08-10T13:02:10.386Z,99721.66
2022-08-10T13:04:28.409Z,99720.94
2022-08-10T13:07:01.121Z,99716.81
2022-08-10T13:09:30.048Z,99709.81
2022-08-10T13:12:44.944Z,99714.28
2022-08-10T13:14:54.150Z,99713.16
2022-08-10T13:17:32.349Z,99708.31
2022-08-10T13:20:17.536Z,99696.28
2022-08-10T13:22:48.707Z,99700.97
2022-08-10T13:25:21.507Z,99705.50
2022-08-10T13:28:02.445Z,99696.38
2022-08-10T13:30:40.434Z,99695.81
2022-08-10T13:33:11.944Z,99690.69
2022-08-10T13:35:40.369Z,99690.09
2022-08-10T13:38:11.282Z,99684.72
2022-08-10T13:40:39.883Z,99686.34
2022-08-10T13:43:09.979Z,99681.84
2022-08-10T13:45:45.131Z,99674.09
2022-08-10T13:48:20.559Z,99679.84
2022-08-10T13:50:51.458Z,99660.38
2022-08-10T13:53:22.648Z,99663.97
2022-08-10T13:55:55.794Z,99673.19
2022-08-10T13:58:27.458Z,99663.41
2022-08-10T14:00:57.175Z,99658.25
2022-08-10T14:03:26.913Z,99663.75
2022-08-10T14:05:56.693Z,99657.09
2022-08-10T14:08:28.530Z,99651.72
2022-08-10T14:11:11.092Z,99645.50
2022-08-10T14:13:45.372Z,99647.81
2022-08-10T14:16:14.489Z,99646.31
2022-08-10T14:18:46.061Z,99642.38
2022-08-10T14:21:15.629Z,99646.66
2022-08-10T14:23:52.830Z,99642.78
2022-08-10T14:26:24.753Z,99640.53
2022-08-10T14:28:55.846Z,99630.69
2022-08-10T14:31:29.993Z,99634.28
2022-08-10T14:34:00.462Z,99618.84
2022-08-10T14:36:52.069Z,99619.03
2022-08-10T14:39:24.862Z,99610.28
2022-08-10T14:42:03.156Z,99613.75
2022-08-10T14:44:46.139Z,99611.13
2022-08-10T14:47:20.157Z,99610.53
2022-08-10T14:50:06.146Z,99618.78
2022-08-10T14:52:44.425Z,99614.41
2022-08-10T14:55:19.559Z,99602.50
2022-08-10T14:58:19.269Z,99609.19
2022-08-10T15:00:42.736Z,99602.63
2022-08-10T15:04:00.740Z,99595.97
2022-08-10T15:06:09.222Z,99597.78
2022-08-10T15:08:47.145Z,99602.06
2022-08-10T15:12:13.241Z,99592.28
2022-08-10T15:14:29.215Z,99602.34
2022-08-10T15:16:58.382Z,99592.22
2022-08-10T15:20:01.454Z,99598.28
2022-08-10T15:22:38.879Z,99598.00
2022-08-10T15:25:18.132Z,99595.03
2022-08-10T15:27:53.839Z,99589.09
2022-08-10T15:30:31.120Z,99586.00
2022-08-10T15:33:21.693Z,99593.75
2022-08-10T15:36:27.272Z,99586.19
2022-08-10T15:39:00.489Z,99572.28
2022-08-10T15:41:59.383Z,99571.91
2022-08-10T15:44:36.675Z,99573.28
2022-08-10T15:47:08.351Z,99564.91
2022-08-10T15:49:46.129Z,99574.63
2022-08-10T15:52:59.775Z,99575.03
2022-08-10T15:55:44.038Z,99568.78
2022-08-10T15:58:07.534Z,99571.44
2022-08-10T16:00:40.839Z,99561.50
2022-08-10T16:03:23.345Z,99565.88
2022-08-10T16:06:01.582Z,99556.09
2022-08-10T16:08:56.752Z,99561.75
2022-08-10T16:11:38.223Z,99561.75
2022-08-10T16:14:28.145Z,99549.91
2022-08-10T16:16:58.278Z,99558.81
2022-08-10T16:19:28.031Z,99557.38
2022-08-10T16:22:34.429Z,99556.03
2022-08-10T16:24:52.791Z,99546.81
2022-08-10T16:27:25.340Z,99556.53
2022-08-10T16:29:59.947Z,99547.84
2022-08-10T16:32:31.969Z,99540.88
2022-08-10T16:35:01.725Z,99542.94
2022-08-10T16:37:57.404Z,99542.38
2022-08-10T16:40:29.158Z,99544.31
2022-08-10T16:42:59.628Z,99538.06
2022-08-10T16:45:32.348Z,99546.41
2022-08-10T16:48:03.017Z,99535.28
2022-08-10T16:50:34.059Z,99549.25
2022-08-10T16:53:06.097Z,99541.28
2022-08-10T16:55:49.710Z,99546.63
2022-08-10T16:58:27.443Z,99547.69
2022-08-10T17:01:01.762Z,99545.44
2022-08-10T17:04:08.625Z,99538.53
2022-08-10T17:06:27.890Z,99543.19
2022-08-10T17:08:59.482Z,99546.13
2022-08-10T17:11:30.661Z,99537.75
2022-08-10T17:13:59.782Z,99546.00
2022-08-10T17:16:35.355Z,99537.00
2022-08-10T17:19:11.843Z,99544.38
2022-08-10T17:21:51.605Z,99547.75
2022-08-10T17:24:24.227Z,99548.56
2022-08-10T17:28:03.185Z,99545.66
2022-08-10T17:30:13.876Z,99543.81
2022-08-10T17:32:52.607Z,99540.72
2022-08-10T17:35:25.599Z,99539.19
2022-08-10T17:37:59.054Z,99536.00
2022-08-10T17:40:29.632Z,99538.97
2022-08-10T17:42:58.863Z,99529.75
2022-08-10T17:45:46.823Z,99535.13
2022-08-10T17:48:17.484Z,99535.25
2022-08-10T17:50:50.625Z,99536.56
2022-08-10T17:53:21.814Z,99532.31
2022-08-10T17:55:55.639Z,99539.03
2022-08-10T17:58:27.133Z,99531.09
2022-08-10T18:01:38.267Z,99533.63
2022-08-10T18:03:52.249Z,99535.13
2022-08-10T18:06:22.941Z,99536.03
2022-08-10T18:08:55.833Z,99537.28
2022-08-10T18:11:27.700Z,99545.41
2022-08-10T18:14:01.795Z,99554.22
2022-08-10T18:16:31.953Z,99558.34
2022-08-10T18:19:06.554Z,99543.44
2022-08-10T18:21:40.266Z,99548.03
2022-08-10T18:24:16.419Z,99551.47
2022-08-10T18:26:46.944Z,99551.53
2022-08-10T18:29:18.934Z,99556.69
2022-08-10T18:31:49.530Z,99553.38
2022-08-10T18:34:20.088Z,99553.91
2022-08-10T18:36:52.299Z,99555.31
2022-08-10T18:39:23.712Z,99555.84
2022-08-10T18:42:04.795Z,99562.97
2022-08-10T18:44:37.411Z,99568.53
2022-08-10T18:47:10.517Z,99575.09
2022-08-10T18:49:51.892Z,99576.22
2022-08-10T18:52:23.570Z,99579.09
2022-08-10T18:54:56.716Z,99590.81
2022-08-10T18:57:38.822Z,99589.72
2022-08-10T19:00:11.740Z,99591.81
2022-08-10T19:03:06.181Z,99590.78
2022-08-10T19:05:53.827Z,99599.94
2022-08-10T19:09:09.653Z,99593.97
2022-08-10T19:12:30.745Z,99596.00
2022-08-10T19:15:09.750Z,99594.09
2022-08-10T19:18:03.795Z,99587.88
2022-08-10T19:20:39.062Z,99588.22
2022-08-10T19:23:16.694Z,99589.81
2022-08-10T19:26:38.203Z,99587.81
2022-08-10T19:28:48.356Z,99594.03
2022-08-10T19:31:41.878Z,99592.81
2022-08-10T19:34:24.501Z,99595.66
2022-08-10T19:37:08.244Z,99597.59
2022-08-10T19:39:51.053Z,99603.72
2022-08-10T19:42:31.230Z,99596.53
2022-08-10T19:45:07.540Z,99596.28
2022-08-10T19:47:42.112Z,99601.19
2022-08-10T19:50:14.418Z,99604.03
2022-08-10T19:52:50.327Z,99606.63
2022-08-10T19:55:27.890Z,99612.72
2022-08-10T19:58:03.156Z,99607.88
2022-08-10T20:00:57.361Z,99615.75
2022-08-10T20:03:36.324Z,99613.19
2022-08-10T20:06:19.869Z,99611.16
2022-08-10T20:08:56.629Z,99612.84
2022-08-10T20:11:45.819Z,99610.19
2022-08-10T20:14:22.712Z,99613.41
2022-08-10T20:16:56.046Z,99617.75
2022-08-10T20:19:52.953Z,99621.06
2022-08-10T20:22:29.330Z,99617.16
2022-08-10T20:25:03.687Z,99621.13
2022-08-10T20:27:59.267Z,99627.75
2022-08-10T20:30:30.576Z,99621.59
2022-08-10T20:33:05.252Z,99621.47
2022-08-10T20:35:48.446Z,99629.75
2022-08-10T20:38:27.167Z,99628.97
2022-08-10T20:41:04.221Z,99629.94
2022-08-10T20:43:40.568Z,99625.84
2022-08-10T20:46:20.481Z,99625.06
2022-08-10T20:48:55.810Z,99624.69
2022-08-10T20:51:57.431Z,99629.06
2022-08-10T20:54:19.868Z,99627.09
2022-08-10T20:57:05.407Z,99626.63
2022-08-10T21:00:05.844Z,99616.59
2022-08-10T21:02:47.932Z,99616.34
2022-08-10T21:05:24.226Z,99619.91
2022-08-10T21:08:01.740Z,99623.41
2022-08-10T21:10:53.123Z,99623.03
2022-08-10T21:13:41.840Z,99618.31
2022-08-10T21:16:26.985Z,99622.13
2022-08-10T21:19:16.620Z,99627.00
2022-08-10T21:22:01.374Z,99631.44
2022-08-10T21:24:39.479Z,99631.63
2022-08-10T21:27:22.487Z,99624.47
2022-08-10T21:30:08.300Z,99629.34
2022-08-10T21:32:43.778Z,99615.69
2022-08-10T21:35:36.748Z,99622.63
2022-08-10T21:38:12.942Z,99623.81
2022-08-10T21:44:52.131Z,99627.19
2022-08-10T21:48:07.236Z,99624.09
2022-08-10T21:51:07.584Z,99629.97
2022-08-10T21:53:58.277Z,99627.88
2022-08-10T21:56:49.005Z,99634.63
2022-08-10T21:59:47.951Z,99627.13
2022-08-10T22:02:40.798Z,99628.97
2022-08-10T22:05:38.784Z,99620.16
2022-08-10T22:08:29.970Z,99613.53
2022-08-10T22:11:17.597Z,99617.41
2022-08-10T22:14:09.625Z,99618.44
2022-08-10T22:17:03.821Z,99619.53
2022-08-10T22:19:53.215Z,99608.84
2022-08-10T22:22:56.272Z,99613.91
2022-08-10T22:25:55.606Z,99619.53
2022-08-10T22:28:48.756Z,99613.44
2022-08-10T22:31:25.112Z,99624.94
2022-08-10T22:31:51.721Z,99612.59
2022-08-10T22:35:17.183Z,99607.16
2022-08-10T22:38:14.304Z,99610.06
2022-08-10T22:41:04.278Z,99612.34
2022-08-10T22:43:52.706Z,99618.78
2022-08-10T22:46:41.905Z,99614.97
2022-08-10T22:49:09.496Z,99611.72
2022-08-10T22:51:53.924Z,99611.56
2022-08-10T22:54:41.486Z,99622.88
2022-08-10T22:57:32.964Z,99625.09
2022-08-10T23:00:13.067Z,99623.97
2022-08-10T23:02:44.675Z,99628.09
2022-08-10T23:05:15.521Z,99629.34
2022-08-10T23:07:48.494Z,99625.91
2022-08-10T23:10:19.163Z,99629.69
2022-08-10T23:12:52.458Z,99626.41
2022-08-10T23:15:44.066Z,99631.75
2022-08-10T23:18:33.107Z,99627.94
2022-08-10T23:21:02.070Z,99626.56
2022-08-10T23:23:36.322Z,99629.03
2022-08-10T23:26:07.303Z,99631.09
2022-08-10T23:29:04.262Z,99627.47
2022-08-10T23:31:50.397Z,99621.94
2022-08-10T23:34:23.727Z,99619.47
2022-08-10T23:36:53.053Z,99626.53
2022-08-10T23:39:28.340Z,99633.75
2022-08-10T23:42:04.574Z,99619.31
2022-08-10T23:44:42.947Z,99618.50
2022-08-10T23:47:13.794Z,99617.25
2022-08-10T23:49:45.313Z,99620.38
2022-08-10T23:52:16.781Z,99617.25
2022-08-10T23:54:50.905Z,99617.25
2022-08-10T23:57:21.318Z,99625.41
2022-08-10T23:59:57.885Z,99622.72
